createdAt,value
2023-01-26T00:01:53.870Z,37.03
2023-01-26T00:04:39.182Z,38.42
2023-01-26T00:07:24.817Z,41.03
2023-01-26T00:10:10.825Z,42.53
2023-01-26T00:12:56.458Z,44.90
2023-01-26T00:15:42.442Z,44.30
2023-01-26T00:18:28.303Z,45.15
2023-01-26T00:21:16.387Z,47.45
2023-01-26T00:24:02.203Z,49.65
2023-01-26T00:26:47.645Z,45.13
2023-01-26T00:29:33.148Z,49.25
2023-01-26T00:32:18.597Z,50.97
2023-01-26T00:35:05.307Z,49.58
2023-01-26T00:37:50.422Z,48.05
2023-01-26T00:40:35.756Z,48.15
2023-01-26T00:43:21.410Z,51.22
2023-01-26T00:46:06.829Z,48.08
2023-01-26T00:48:53.927Z,47.85
2023-01-26T00:51:39.169Z,48.35
2023-01-26T00:54:24.572Z,50.17
2023-01-26T00:57:10.070Z,46.78
2023-01-26T00:59:55.488Z,46.95
2023-01-26T01:02:43.998Z,48.60
2023-01-26T01:05:31.097Z,50.15
2023-01-26T01:08:16.426Z,49.42
2023-01-26T01:11:07.556Z,48.78
2023-01-26T01:13:52.999Z,47.22
2023-01-26T01:16:38.428Z,49.45
2023-01-26T01:19:24.221Z,49.17
2023-01-26T01:22:09.607Z,49.20
2023-01-26T01:24:55.062Z,46.53
2023-01-26T01:27:40.561Z,45.75
2023-01-26T01:30:25.926Z,45.38
2023-01-26T01:33:11.355Z,45.25
2023-01-26T01:36:02.395Z,47.80
2023-01-26T01:38:49.418Z,44.85
2023-01-26T01:41:34.571Z,45.17
2023-01-26T01:44:22.857Z,44.30
2023-01-26T01:47:26.777Z,41.45
2023-01-26T01:50:17.965Z,42.88
2023-01-26T01:53:03.937Z,50.05
2023-01-26T01:55:49.133Z,48.63
2023-01-26T01:58:37.562Z,47.70
2023-01-26T02:01:23.416Z,48.70
2023-01-26T02:04:09.119Z,46.65
2023-01-26T02:06:58.993Z,48.25
2023-01-26T02:10:03.839Z,44.67
2023-01-26T02:12:54.054Z,48.45
2023-01-26T02:15:39.456Z,46.97
2023-01-26T02:18:25.128Z,45.47
2023-01-26T02:21:13.046Z,45.58
2023-01-26T02:24:12.710Z,42.15
2023-01-26T02:26:58.129Z,42.35
2023-01-26T02:29:43.484Z,39.97
2023-01-26T02:32:28.823Z,40.97
2023-01-26T02:35:14.161Z,39.15
2023-01-26T02:37:59.608Z,37.95
2023-01-26T02:40:54.294Z,38.80
2023-01-26T02:43:40.259Z,36.63
2023-01-26T02:46:25.671Z,37.25
2023-01-26T02:49:29.547Z,38.05
2023-01-26T02:52:16.497Z,36.10
2023-01-26T02:55:23.119Z,32.85
2023-01-26T02:58:08.644Z,32.70
2023-01-26T03:00:55.351Z,30.75
2023-01-26T03:03:44.922Z,32.90
2023-01-26T03:06:30.168Z,32.13
2023-01-26T03:09:16.187Z,33.17
2023-01-26T03:12:01.687Z,31.70
2023-01-26T03:15:07.168Z,35.65
2023-01-26T03:18:12.729Z,32.05
2023-01-26T03:21:25.321Z,32.30
2023-01-26T03:24:31.222Z,33.08
2023-01-26T03:27:26.962Z,35.38
2023-01-26T03:30:15.640Z,34.95
2023-01-26T03:33:03.065Z,34.60
2023-01-26T03:35:53.596Z,33.63
2023-01-26T03:38:40.556Z,31.33
2023-01-26T03:41:44.544Z,32.10
2023-01-26T03:44:48.369Z,31.13
2023-01-26T03:47:53.245Z,28.98
2023-01-26T03:50:57.080Z,26.25
2023-01-26T03:54:02.004Z,28.63
2023-01-26T03:56:47.409Z,28.10
2023-01-26T03:59:39.717Z,29.98
2023-01-26T04:02:49.331Z,30.42
2023-01-26T04:05:54.045Z,32.28
2023-01-26T04:08:39.402Z,33.38
2023-01-26T04:11:24.972Z,32.92
2023-01-26T04:14:34.461Z,34.17
2023-01-26T04:17:54.004Z,27.38
2023-01-26T04:20:58.785Z,29.92
2023-01-26T04:23:44.624Z,28.25
2023-01-26T04:26:36.862Z,31.60
2023-01-26T04:29:25.718Z,26.88
2023-01-26T04:32:11.097Z,24.95
2023-01-26T04:34:56.940Z,31.95
2023-01-26T04:37:44.503Z,32.08
2023-01-26T04:40:29.855Z,36.53
2023-01-26T04:43:15.294Z,34.75
2023-01-26T04:46:03.470Z,35.70
2023-01-26T04:48:49.403Z,40.22
2023-01-26T04:51:35.927Z,33.10
2023-01-26T04:54:21.686Z,29.85
2023-01-26T04:57:07.867Z,30.60
2023-01-26T04:59:54.495Z,33.05
2023-01-26T05:02:40.485Z,29.95
2023-01-26T05:05:26.998Z,34.67
2023-01-26T05:08:12.468Z,32.60
2023-01-26T05:10:58.594Z,32.30
2023-01-26T05:13:59.424Z,34.63
2023-01-26T05:16:54.863Z,33.40
2023-01-26T05:19:44.758Z,38.65
2023-01-26T05:22:53.845Z,34.85
2023-01-26T05:25:51.229Z,38.33
2023-01-26T05:28:36.607Z,41.40
2023-01-26T05:31:22.743Z,45.13
2023-01-26T05:34:08.456Z,30.95
2023-01-26T05:36:55.463Z,35.72
2023-01-26T05:39:41.337Z,41.13
2023-01-26T05:42:26.887Z,35.05
2023-01-26T05:45:18.994Z,44.60
2023-01-26T05:48:04.817Z,44.10
2023-01-26T05:50:50.710Z,37.58
2023-01-26T05:53:38.517Z,31.50
2023-01-26T05:56:23.996Z,36.35
2023-01-26T05:59:14.137Z,38.08
2023-01-26T06:02:01.298Z,36.58
2023-01-26T06:04:46.593Z,35.33
2023-01-26T06:07:33.198Z,34.13
2023-01-26T06:10:35.900Z,31.00
2023-01-26T06:13:36.924Z,38.15
2023-01-26T06:16:39.783Z,28.45
2023-01-26T06:19:26.492Z,37.28
2023-01-26T06:22:16.449Z,32.08
2023-01-26T06:25:05.675Z,29.73
2023-01-26T06:27:51.894Z,28.00
2023-01-26T06:30:44.924Z,27.92
2023-01-26T06:33:36.007Z,28.77
2023-01-26T06:36:22.081Z,28.35
2023-01-26T06:39:10.445Z,23.08
2023-01-26T06:41:55.776Z,22.33
2023-01-26T06:44:41.088Z,35.92
2023-01-26T06:47:26.527Z,24.25
2023-01-26T06:50:12.310Z,31.10
2023-01-26T06:53:00.465Z,27.98
2023-01-26T06:56:10.215Z,29.42
2023-01-26T06:59:13.038Z,28.55
2023-01-26T07:02:19.128Z,29.48
2023-01-26T07:05:04.875Z,23.58
2023-01-26T07:07:49.859Z,25.77
2023-01-26T07:10:36.549Z,23.25
2023-01-26T07:13:21.567Z,29.00
2023-01-26T07:16:09.409Z,25.90
2023-01-26T07:18:55.708Z,21.48
2023-01-26T07:21:41.158Z,22.00
2023-01-26T07:24:27.071Z,24.75
2023-01-26T07:27:12.586Z,29.30
2023-01-26T07:29:58.003Z,25.33
2023-01-26T07:32:43.259Z,21.05
2023-01-26T07:35:29.872Z,23.50
2023-01-26T07:38:15.213Z,22.27
2023-01-26T07:41:05.401Z,22.05
2023-01-26T07:43:51.676Z,41.80
2023-01-26T07:46:37.526Z,28.08
2023-01-26T07:49:23.067Z,27.83
2023-01-26T07:52:09.149Z,24.27
2023-01-26T07:54:54.422Z,26.35
2023-01-26T07:57:39.979Z,27.77
2023-01-26T08:00:25.260Z,23.25
2023-01-26T08:03:10.803Z,27.15
2023-01-26T08:05:56.447Z,22.70
2023-01-26T08:08:42.099Z,35.00
2023-01-26T08:11:27.476Z,28.98
2023-01-26T08:14:13.018Z,40.13
2023-01-26T08:16:58.621Z,31.10
2023-01-26T08:19:44.764Z,22.33
2023-01-26T08:22:30.429Z,26.00
2023-01-26T08:25:15.723Z,24.50
2023-01-26T08:28:01.202Z,23.23
2023-01-26T08:30:46.662Z,26.35
2023-01-26T08:33:32.901Z,30.38
2023-01-26T08:36:22.101Z,21.90
2023-01-26T08:39:08.211Z,29.92
2023-01-26T08:41:53.255Z,27.15
2023-01-26T08:44:38.552Z,21.70
2023-01-26T08:47:23.925Z,23.80
2023-01-26T08:50:10.678Z,30.63
2023-01-26T08:52:56.853Z,27.40
2023-01-26T08:55:42.308Z,27.02
2023-01-26T08:58:28.838Z,20.73
2023-01-26T09:01:16.449Z,22.05
2023-01-26T09:04:02.983Z,20.20
2023-01-26T09:06:48.059Z,24.20
2023-01-26T09:09:33.573Z,30.35
2023-01-26T09:12:18.909Z,27.23
2023-01-26T09:15:04.966Z,31.02
2023-01-26T09:17:50.524Z,29.25
2023-01-26T09:20:37.347Z,26.70
2023-01-26T09:23:22.445Z,34.72
2023-01-26T09:26:07.676Z,31.17
2023-01-26T09:28:53.253Z,25.50
2023-01-26T09:31:38.316Z,26.73
2023-01-26T09:34:25.267Z,24.67
2023-01-26T09:37:10.937Z,32.20
2023-01-26T09:39:56.385Z,23.67
2023-01-26T09:42:47.790Z,26.40
2023-01-26T09:45:42.375Z,28.35
2023-01-26T09:48:44.183Z,32.35
2023-01-26T09:51:37.543Z,30.05
2023-01-26T09:54:35.210Z,19.95
2023-01-26T09:57:32.976Z,26.50
2023-01-26T10:00:22.866Z,24.58
2023-01-26T10:03:31.266Z,49.95
2023-01-26T10:06:22.892Z,21.48
2023-01-26T10:09:29.705Z,24.63
2023-01-26T10:12:30.893Z,19.10
2023-01-26T10:15:38.984Z,28.00
2023-01-26T10:18:40.950Z,27.77
2023-01-26T10:21:33.383Z,19.52
2023-01-26T10:24:23.555Z,16.27
2023-01-26T10:27:14.057Z,19.65
2023-01-26T10:29:59.425Z,21.17
2023-01-26T10:32:47.243Z,21.55
2023-01-26T10:35:34.252Z,23.38
2023-01-26T10:38:37.921Z,16.88
2023-01-26T10:41:26.059Z,20.90
2023-01-26T10:44:34.863Z,17.55
2023-01-26T10:47:22.024Z,17.45
2023-01-26T10:50:34.069Z,18.67
2023-01-26T10:53:25.323Z,17.13
2023-01-26T10:56:17.165Z,18.77
2023-01-26T10:59:03.152Z,23.73
2023-01-26T11:02:00.810Z,21.30
2023-01-26T11:05:09.757Z,23.38
2023-01-26T11:08:02.376Z,20.38
2023-01-26T11:10:53.847Z,20.73
2023-01-26T11:13:39.338Z,17.80
2023-01-26T11:16:27.450Z,16.75
2023-01-26T11:19:22.637Z,16.65
2023-01-26T11:22:15.092Z,23.15
2023-01-26T11:25:23.963Z,18.67
2023-01-26T11:28:38.352Z,24.58
2023-01-26T11:31:43.815Z,20.77
2023-01-26T11:35:01.104Z,20.08
2023-01-26T11:37:54.061Z,23.30
2023-01-26T11:41:06.359Z,21.40
2023-01-26T11:44:32.235Z,17.48
2023-01-26T11:47:53.516Z,21.00
2023-01-26T11:50:47.029Z,17.73
2023-01-26T11:54:03.628Z,17.90
2023-01-26T11:56:52.966Z,17.38
2023-01-26T12:00:17.700Z,19.60
2023-01-26T12:03:38.745Z,18.90
2023-01-26T12:06:45.646Z,18.58
2023-01-26T12:09:44.121Z,16.13
2023-01-26T12:12:51.573Z,12.85
2023-01-26T12:15:39.833Z,21.20
2023-01-26T12:19:09.224Z,14.85
2023-01-26T12:22:06.128Z,19.95
2023-01-26T12:25:20.052Z,15.18
2023-01-26T12:28:29.431Z,11.77
2023-01-26T12:31:21.497Z,16.95
2023-01-26T12:34:12.853Z,10.63
2023-01-26T12:37:43.155Z,14.70
2023-01-26T12:40:44.547Z,14.63
2023-01-26T12:44:00.114Z,14.80
2023-01-26T12:46:52.998Z,14.40
2023-01-26T12:49:48.282Z,12.00
2023-01-26T12:53:05.953Z,16.25
2023-01-26T12:56:00.995Z,10.65
2023-01-26T12:58:48.464Z,17.70
2023-01-26T13:01:40.850Z,11.02
2023-01-26T13:07:31.254Z,13.13
2023-01-26T13:10:17.969Z,11.70
2023-01-26T13:13:32.086Z,12.65
2023-01-26T13:18:55.781Z,11.50
2023-01-26T13:21:44.228Z,9.65
2023-01-26T13:24:29.861Z,12.00
2023-01-26T13:27:37.213Z,10.85
2023-01-26T13:30:28.669Z,12.77
2023-01-26T13:33:22.947Z,12.52
2023-01-26T13:36:16.997Z,11.07
2023-01-26T13:39:25.117Z,8.68
2023-01-26T13:42:23.487Z,11.48
2023-01-26T13:45:23.553Z,5.53
2023-01-26T13:48:20.745Z,9.32
2023-01-26T13:51:09.180Z,8.40
2023-01-26T13:53:57.143Z,7.68
2023-01-26T13:56:58.761Z,12.57
2023-01-26T14:00:01.820Z,13.02
2023-01-26T14:02:51.940Z,9.32
2023-01-26T14:05:37.635Z,7.38
2023-01-26T14:08:23.623Z,7.20
2023-01-26T14:11:19.007Z,10.00
2023-01-26T14:14:04.424Z,9.30
2023-01-26T14:16:50.125Z,11.45
2023-01-26T14:19:41.123Z,16.63
2023-01-26T14:22:27.650Z,12.82
2023-01-26T14:25:13.330Z,11.25
2023-01-26T14:27:58.879Z,13.32
2023-01-26T14:30:50.611Z,12.13
2023-01-26T14:33:37.221Z,11.10
2023-01-26T14:36:23.632Z,13.60
2023-01-26T14:39:17.196Z,9.80
2023-01-26T14:42:03.627Z,11.75
2023-01-26T14:44:49.582Z,11.60
2023-01-26T14:47:35.454Z,8.98
2023-01-26T14:50:29.889Z,10.23
2023-01-26T14:53:19.346Z,13.63
2023-01-26T14:56:05.251Z,9.02
2023-01-26T14:58:52.989Z,9.23
2023-01-26T15:01:38.469Z,10.68
2023-01-26T15:04:36.374Z,7.72
2023-01-26T15:07:43.293Z,8.10
2023-01-26T15:10:34.412Z,12.05
2023-01-26T15:13:23.329Z,10.48
2023-01-26T15:16:19.634Z,8.07
2023-01-26T15:19:07.804Z,7.50
2023-01-26T15:21:53.476Z,6.90
2023-01-26T15:24:38.983Z,9.80
2023-01-26T15:27:24.443Z,6.53
2023-01-26T15:30:17.116Z,12.85
2023-01-26T15:35:58.176Z,9.65
2023-01-26T15:38:43.444Z,7.30
2023-01-26T15:41:29.360Z,11.45
2023-01-26T15:44:20.258Z,6.10
2023-01-26T15:47:05.385Z,8.70
2023-01-26T15:49:50.858Z,12.35
2023-01-26T15:52:36.343Z,10.23
2023-01-26T15:55:26.291Z,11.32
2023-01-26T15:58:11.647Z,10.23
2023-01-26T16:00:58.067Z,7.88
2023-01-26T16:03:43.573Z,10.27
2023-01-26T16:06:31.590Z,11.13
2023-01-26T16:09:17.188Z,13.07
2023-01-26T16:12:02.640Z,10.75
2023-01-26T16:14:48.073Z,13.63
2023-01-26T16:17:33.394Z,14.20
2023-01-26T16:20:19.041Z,18.75
2023-01-26T16:23:15.140Z,14.43
2023-01-26T16:26:00.271Z,12.07
2023-01-26T16:28:46.715Z,13.65
2023-01-26T16:31:34.572Z,14.70
2023-01-26T16:34:19.788Z,14.35
2023-01-26T16:37:05.268Z,17.40
2023-01-26T16:39:50.709Z,17.95
2023-01-26T16:42:40.022Z,14.48
2023-01-26T16:45:29.408Z,12.70
2023-01-26T16:48:16.211Z,10.95
2023-01-26T16:51:11.461Z,17.50
2023-01-26T16:53:57.547Z,13.38
2023-01-26T16:56:43.032Z,12.38
2023-01-26T16:59:28.376Z,12.43
2023-01-26T17:02:24.851Z,12.00
2023-01-26T17:05:18.794Z,13.25
2023-01-26T17:08:04.085Z,18.25
2023-01-26T17:11:01.636Z,14.10
2023-01-26T17:13:47.914Z,14.38
2023-01-26T17:16:33.628Z,16.05
2023-01-26T17:19:18.673Z,7.80
2023-01-26T17:22:04.226Z,14.05
2023-01-26T17:24:49.747Z,14.48
2023-01-26T17:27:35.582Z,16.05
2023-01-26T17:30:21.199Z,15.55
2023-01-26T17:33:06.670Z,12.15
2023-01-26T17:36:00.231Z,14.30
2023-01-26T17:38:46.569Z,10.68
2023-01-26T17:41:31.827Z,11.55
2023-01-26T17:44:17.313Z,14.23
2023-01-26T17:47:02.875Z,16.85
2023-01-26T17:49:48.578Z,14.15
2023-01-26T17:52:36.321Z,12.10
2023-01-26T17:55:21.584Z,12.95
2023-01-26T17:58:10.701Z,23.42
2023-01-26T18:00:55.907Z,16.65
2023-01-26T18:03:42.789Z,14.90
2023-01-26T18:06:29.700Z,16.17
2023-01-26T18:09:15.053Z,11.23
2023-01-26T18:12:00.772Z,11.32
2023-01-26T18:14:48.282Z,14.63
2023-01-26T18:17:33.729Z,13.27
2023-01-26T18:20:19.204Z,15.73
2023-01-26T18:23:04.599Z,12.18
2023-01-26T18:25:50.326Z,15.25
2023-01-26T18:28:35.374Z,13.95
2023-01-26T18:31:22.590Z,9.77
2023-01-26T18:34:08.406Z,11.55
2023-01-26T18:36:53.488Z,13.30
2023-01-26T18:39:39.143Z,12.38
2023-01-26T18:42:24.322Z,13.35
2023-01-26T18:45:10.506Z,13.38
2023-01-26T18:47:56.344Z,12.63
2023-01-26T18:50:41.959Z,12.68
2023-01-26T18:53:28.171Z,11.95
2023-01-26T18:56:16.061Z,13.68
2023-01-26T18:59:01.256Z,15.85
2023-01-26T19:01:46.870Z,15.55
2023-01-26T19:04:32.457Z,14.15
2023-01-26T19:07:18.629Z,17.13
2023-01-26T19:10:05.954Z,13.10
2023-01-26T19:12:51.170Z,18.00
2023-01-26T19:15:36.537Z,11.38
2023-01-26T19:18:22.197Z,11.63
2023-01-26T19:21:07.742Z,14.00
2023-01-26T19:23:54.862Z,10.90
2023-01-26T19:26:40.246Z,15.65
2023-01-26T19:29:26.049Z,12.80
2023-01-26T19:32:11.597Z,17.55
2023-01-26T19:34:56.967Z,14.38
2023-01-26T19:37:42.412Z,14.98
2023-01-26T19:40:27.804Z,15.20
2023-01-26T19:43:14.583Z,13.98
2023-01-26T19:46:00.195Z,14.73
2023-01-26T19:48:46.252Z,10.57
2023-01-26T19:51:33.170Z,14.52
2023-01-26T19:54:18.590Z,15.30
2023-01-26T19:57:04.097Z,10.35
2023-01-26T19:59:50.287Z,21.35
2023-01-26T20:02:35.788Z,14.05
2023-01-26T20:05:21.067Z,14.00
2023-01-26T20:08:06.483Z,18.55
2023-01-26T20:10:52.035Z,17.45
2023-01-26T20:13:37.745Z,17.73
2023-01-26T20:16:24.036Z,18.42
2023-01-26T20:19:11.528Z,14.57
2023-01-26T20:21:57.064Z,19.15
2023-01-26T20:24:42.856Z,17.88
2023-01-26T20:27:30.128Z,16.00
2023-01-26T20:30:15.642Z,15.07
2023-01-26T20:33:02.116Z,14.95
2023-01-26T20:35:47.539Z,20.17
2023-01-26T20:38:32.990Z,14.70
2023-01-26T20:41:27.554Z,15.77
2023-01-26T20:44:12.644Z,16.40
2023-01-26T20:46:58.672Z,17.98
2023-01-26T20:49:44.104Z,15.18
2023-01-26T20:52:30.493Z,21.52
2023-01-26T20:55:16.175Z,18.67
2023-01-26T20:58:01.484Z,21.38
2023-01-26T21:00:46.847Z,17.83
2023-01-26T21:03:32.953Z,17.23
2023-01-26T21:06:20.324Z,11.98
2023-01-26T21:09:06.061Z,18.00
2023-01-26T21:11:51.259Z,20.45
2023-01-26T21:14:36.854Z,26.38
2023-01-26T21:17:22.918Z,19.55
2023-01-26T21:20:08.984Z,18.88
2023-01-26T21:22:55.134Z,16.05
2023-01-26T21:25:40.562Z,17.48
2023-01-26T21:28:26.447Z,17.48
2023-01-26T21:31:14.572Z,17.75
2023-01-26T21:34:00.678Z,18.83
2023-01-26T21:36:46.104Z,23.83
2023-01-26T21:39:31.757Z,21.40
2023-01-26T21:42:17.200Z,19.63
2023-01-26T21:45:21.105Z,15.07
2023-01-26T21:48:25.740Z,22.88
2023-01-26T21:51:29.363Z,20.67
2023-01-26T21:54:15.996Z,21.25
2023-01-26T21:57:02.788Z,14.60
2023-01-26T21:59:48.059Z,21.95
2023-01-26T22:02:33.571Z,19.85
2023-01-26T22:05:19.138Z,20.80
2023-01-26T22:08:05.232Z,18.52
2023-01-26T22:10:55.977Z,17.88
2023-01-26T22:13:42.681Z,17.35
2023-01-26T22:16:28.727Z,17.88
2023-01-26T22:19:14.064Z,21.45
2023-01-26T22:21:59.580Z,20.50
2023-01-26T22:24:44.937Z,18.45
2023-01-26T22:27:30.546Z,16.05
2023-01-26T22:30:16.138Z,19.25
2023-01-26T22:33:01.824Z,18.45
2023-01-26T22:35:46.955Z,16.40
2023-01-26T22:38:34.688Z,20.02
2023-01-26T22:41:22.434Z,23.58
2023-01-26T22:44:07.731Z,15.15
2023-01-26T22:46:53.099Z,17.88
2023-01-26T22:49:38.547Z,20.38
2023-01-26T22:52:23.955Z,20.20
2023-01-26T22:55:10.192Z,21.77
2023-01-26T22:57:55.313Z,17.05
2023-01-26T23:00:40.837Z,23.27
2023-01-26T23:03:26.184Z,17.20
2023-01-26T23:06:14.550Z,20.13
2023-01-26T23:09:01.024Z,16.27
2023-01-26T23:11:46.270Z,12.75
2023-01-26T23:14:32.564Z,17.05
2023-01-26T23:17:17.657Z,14.15
2023-01-26T23:20:03.147Z,17.52
2023-01-26T23:22:48.561Z,17.77
2023-01-26T23:25:51.924Z,12.27
2023-01-26T23:28:40.337Z,17.60
2023-01-26T23:31:25.385Z,16.88
2023-01-26T23:34:12.318Z,12.10
2023-01-26T23:36:57.859Z,13.48
2023-01-26T23:39:43.236Z,15.73
2023-01-26T23:42:28.650Z,12.18
2023-01-26T23:45:14.076Z,14.88
2023-01-26T23:47:59.725Z,14.27
2023-01-26T23:50:45.612Z,12.38
2023-01-26T23:53:31.389Z,12.60
2023-01-26T23:56:17.852Z,20.80
2023-01-26T23:59:03.227Z,13.63
